createdAt,value
2023-02-22T00:00:32.326Z,90.45
2023-02-22T00:01:32.365Z,90.47
2023-02-22T00:02:32.299Z,90.48
2023-02-22T00:03:32.318Z,90.44
2023-02-22T00:04:32.276Z,90.47
2023-02-22T00:05:32.287Z,90.48
2023-02-22T00:06:32.786Z,90.48
2023-02-22T00:07:32.292Z,90.50
2023-02-22T00:08:32.251Z,90.49
2023-02-22T00:09:32.804Z,90.48
2023-02-22T00:10:32.212Z,90.49
2023-02-22T00:11:32.218Z,90.51
2023-02-22T00:12:32.229Z,90.52
2023-02-22T00:13:32.194Z,90.56
2023-02-22T00:14:32.810Z,90.58
2023-02-22T00:15:32.166Z,90.65
2023-02-22T00:16:32.223Z,90.70
2023-02-22T00:17:32.470Z,90.69
2023-02-22T00:18:32.194Z,90.71
2023-02-22T00:19:32.126Z,90.73
2023-02-22T00:20:32.089Z,90.73
2023-02-22T00:21:32.104Z,90.79
2023-02-22T00:22:32.144Z,90.81
2023-02-22T00:23:32.134Z,90.84
2023-02-22T00:24:32.041Z,90.87
2023-02-22T00:25:32.048Z,90.90
2023-02-22T00:26:32.308Z,90.91
2023-02-22T00:27:32.029Z,90.89
2023-02-22T00:28:32.006Z,90.89
2023-02-22T00:29:32.018Z,90.91
2023-02-22T00:30:32.336Z,90.91
2023-02-22T00:31:32.024Z,90.92
2023-02-22T00:32:31.959Z,90.94
2023-02-22T00:33:32.082Z,90.96
2023-02-22T00:34:32.072Z,90.99
2023-02-22T00:35:31.925Z,90.99
2023-02-22T00:36:31.908Z,91.01
2023-02-22T00:37:31.902Z,91.02
2023-02-22T00:38:32.482Z,91.03
2023-02-22T00:39:32.376Z,91.04
2023-02-22T00:40:31.845Z,91.06
2023-02-22T00:41:31.852Z,91.07
2023-02-22T00:42:31.850Z,91.08
2023-02-22T00:43:31.832Z,91.08
2023-02-22T00:44:31.827Z,91.08
2023-02-22T00:45:31.876Z,91.14
2023-02-22T00:46:31.812Z,91.14
2023-02-22T00:47:31.796Z,91.15
2023-02-22T00:48:31.780Z,91.18
2023-02-22T00:49:31.778Z,91.17
2023-02-22T00:50:31.737Z,91.17
2023-02-22T00:51:31.797Z,91.16
2023-02-22T00:52:31.708Z,91.14
2023-02-22T00:53:31.799Z,91.13
2023-02-22T00:54:31.816Z,91.12
2023-02-22T00:55:31.706Z,91.14
2023-02-22T00:56:31.688Z,91.12
2023-02-22T00:57:31.827Z,91.11
2023-02-22T00:58:31.680Z,91.12
2023-02-22T00:59:31.640Z,91.11
2023-02-22T01:00:31.648Z,91.12
2023-02-22T01:01:31.695Z,91.10
2023-02-22T01:02:31.834Z,91.13
2023-02-22T01:03:31.633Z,91.12
2023-02-22T01:04:31.610Z,91.12
2023-02-22T01:05:31.834Z,91.15
2023-02-22T01:06:31.818Z,91.17
2023-02-22T01:07:31.548Z,91.19
2023-02-22T01:08:31.584Z,91.18
2023-02-22T01:09:31.530Z,91.16
2023-02-22T01:10:31.636Z,91.16
2023-02-22T01:11:31.541Z,91.22
2023-02-22T01:12:31.507Z,91.28
2023-02-22T01:13:31.737Z,91.35
2023-02-22T01:14:31.494Z,91.36
2023-02-22T01:15:31.461Z,91.40
2023-02-22T01:16:31.510Z,91.41
2023-02-22T01:17:31.464Z,91.41
2023-02-22T01:18:31.857Z,91.42
2023-02-22T01:19:31.400Z,91.39
2023-02-22T01:20:31.410Z,91.41
2023-02-22T01:21:31.419Z,91.45
2023-02-22T01:22:31.396Z,91.47
2023-02-22T01:23:31.354Z,91.44
2023-02-22T01:24:31.380Z,91.44
2023-02-22T01:25:31.365Z,91.45
2023-02-22T01:26:31.479Z,91.49
2023-02-22T01:27:31.321Z,91.53
2023-02-22T01:28:31.312Z,91.55
2023-02-22T01:29:31.851Z,91.59
2023-02-22T01:30:31.434Z,91.56
2023-02-22T01:31:31.324Z,91.60
2023-02-22T01:32:31.257Z,91.60
2023-02-22T01:33:31.246Z,91.63
2023-02-22T01:34:31.438Z,91.68
2023-02-22T01:35:31.208Z,91.68
2023-02-22T01:36:31.227Z,91.73
2023-02-22T01:37:31.215Z,91.81
2023-02-22T01:38:31.856Z,91.86
2023-02-22T01:39:31.169Z,91.87
2023-02-22T01:40:31.180Z,91.89
2023-02-22T01:41:31.146Z,91.89
2023-02-22T01:42:31.291Z,91.93
2023-02-22T01:43:31.192Z,91.96
2023-02-22T01:44:31.123Z,91.94
2023-02-22T01:45:31.853Z,91.97
2023-02-22T01:46:31.109Z,91.97
2023-02-22T01:47:31.864Z,92.01
2023-02-22T01:48:31.074Z,92.03
2023-02-22T01:49:31.744Z,92.05
2023-02-22T01:50:32.131Z,92.03
2023-02-22T01:51:31.866Z,92.03
2023-02-22T01:52:31.423Z,92.05
2023-02-22T01:53:31.021Z,92.06
2023-02-22T01:54:31.027Z,92.07
2023-02-22T01:55:30.978Z,92.08
2023-02-22T01:56:31.046Z,92.19
2023-02-22T01:57:30.952Z,92.26
2023-02-22T01:58:31.149Z,92.29
2023-02-22T01:59:30.975Z,92.35
2023-02-22T02:00:30.938Z,92.39
2023-02-22T02:01:31.231Z,92.41
2023-02-22T02:02:30.912Z,92.44
2023-02-22T02:03:30.886Z,92.47
2023-02-22T02:04:30.873Z,92.52
2023-02-22T02:05:30.881Z,92.61
2023-02-22T02:06:31.118Z,92.66
2023-02-22T02:07:30.834Z,92.66
2023-02-22T02:08:31.022Z,92.68
2023-02-22T02:09:30.877Z,92.71
2023-02-22T02:10:30.820Z,92.70
2023-02-22T02:11:30.816Z,92.73
2023-02-22T02:12:30.794Z,92.74
2023-02-22T02:13:30.786Z,92.78
2023-02-22T02:14:30.899Z,92.79
2023-02-22T02:15:30.741Z,92.80
2023-02-22T02:16:30.788Z,92.83
2023-02-22T02:17:30.870Z,92.84
2023-02-22T02:18:30.873Z,92.85
2023-02-22T02:19:30.722Z,92.89
2023-02-22T02:20:30.705Z,92.91
2023-02-22T02:21:30.676Z,92.97
2023-02-22T02:22:30.882Z,93.00
2023-02-22T02:23:30.783Z,93.07
2023-02-22T02:24:30.656Z,93.15
2023-02-22T02:25:30.886Z,93.15
2023-02-22T02:26:30.659Z,93.16
2023-02-22T02:27:30.610Z,93.17
2023-02-22T02:28:30.607Z,93.16
2023-02-22T02:29:30.896Z,93.18
2023-02-22T02:30:30.943Z,93.19
2023-02-22T02:31:30.564Z,93.22
2023-02-22T02:32:30.936Z,93.22
2023-02-22T02:33:30.885Z,93.22
2023-02-22T02:34:30.874Z,93.23
2023-02-22T02:35:30.506Z,93.24
2023-02-22T02:36:31.310Z,93.23
2023-02-22T02:37:31.712Z,93.21
2023-02-22T02:38:30.669Z,93.18
2023-02-22T02:39:30.484Z,93.15
2023-02-22T02:40:30.519Z,93.15
2023-02-22T02:41:30.492Z,93.13
2023-02-22T02:42:30.535Z,93.10
2023-02-22T02:43:30.432Z,93.07
2023-02-22T02:44:30.417Z,93.05
2023-02-22T02:45:30.629Z,93.02
2023-02-22T02:46:30.423Z,93.00
2023-02-22T02:47:30.375Z,92.97
2023-02-22T02:48:30.713Z,92.94
2023-02-22T02:49:30.747Z,92.94
2023-02-22T02:50:30.594Z,92.93
2023-02-22T02:51:30.831Z,92.90
2023-02-22T02:52:30.332Z,92.85
2023-02-22T02:53:30.303Z,92.81
2023-02-22T02:54:30.476Z,92.78
2023-02-22T02:55:31.745Z,92.75
2023-02-22T02:56:30.277Z,92.70
2023-02-22T02:57:30.861Z,92.70
2023-02-22T02:58:30.269Z,92.70
2023-02-22T02:59:30.229Z,92.67
2023-02-22T03:00:30.561Z,92.71
2023-02-22T03:01:30.228Z,92.73
2023-02-22T03:02:30.909Z,92.72
2023-02-22T03:03:30.384Z,92.72
2023-02-22T03:04:30.195Z,92.74
2023-02-22T03:05:30.308Z,92.73
2023-02-22T03:06:30.918Z,92.74
2023-02-22T03:07:30.177Z,92.72
2023-02-22T03:08:30.136Z,92.72
2023-02-22T03:09:30.966Z,92.70
2023-02-22T03:10:30.932Z,92.70
2023-02-22T03:11:30.105Z,92.72
2023-02-22T03:12:30.628Z,92.72
2023-02-22T03:13:30.824Z,92.74
2023-02-22T03:14:30.279Z,92.73
2023-02-22T03:15:30.471Z,92.74
2023-02-22T03:16:30.140Z,92.72
2023-02-22T03:17:30.956Z,92.71
2023-02-22T03:18:30.143Z,92.71
2023-02-22T03:19:29.999Z,92.69
2023-02-22T03:20:30.929Z,92.68
2023-02-22T03:21:30.645Z,92.68
2023-02-22T03:22:30.940Z,92.68
2023-02-22T03:23:29.946Z,92.69
2023-02-22T03:24:29.954Z,92.71
2023-02-22T03:25:29.941Z,92.73
2023-02-22T03:26:29.931Z,92.76
2023-02-22T03:27:29.923Z,92.78
2023-02-22T03:28:29.955Z,92.81
2023-02-22T03:29:29.901Z,92.81
2023-02-22T03:30:29.986Z,92.81
2023-02-22T03:31:29.935Z,92.84
2023-02-22T03:32:29.884Z,92.88
2023-02-22T03:33:29.837Z,92.93
2023-02-22T03:34:29.937Z,92.97
2023-02-22T03:35:29.848Z,92.95
2023-02-22T03:36:29.818Z,92.94
2023-02-22T03:37:29.938Z,92.94
2023-02-22T03:38:29.798Z,92.93
2023-02-22T03:39:29.762Z,92.94
2023-02-22T03:40:29.758Z,92.95
2023-02-22T03:41:29.959Z,92.96
2023-02-22T03:42:29.772Z,92.96
2023-02-22T03:43:29.722Z,92.98
2023-02-22T03:44:29.720Z,93.01
2023-02-22T03:45:29.694Z,93.01
2023-02-22T03:46:29.767Z,93.07
2023-02-22T03:47:29.703Z,93.09
2023-02-22T03:48:29.695Z,93.10
2023-02-22T03:49:29.862Z,93.12
2023-02-22T03:50:29.969Z,93.17
2023-02-22T03:51:29.631Z,93.18
2023-02-22T03:52:30.230Z,93.18
2023-02-22T03:53:29.615Z,93.21
2023-02-22T03:54:29.834Z,93.22
2023-02-22T03:55:30.063Z,93.21
2023-02-22T03:56:29.590Z,93.23
2023-02-22T03:57:30.698Z,93.22
2023-02-22T03:58:29.758Z,93.20
2023-02-22T03:59:29.542Z,93.22
2023-02-22T04:00:29.540Z,93.19
2023-02-22T04:01:29.954Z,93.20
2023-02-22T04:02:30.737Z,93.21
2023-02-22T04:03:29.488Z,93.18
2023-02-22T04:04:30.321Z,93.21
2023-02-22T04:05:30.138Z,93.21
2023-02-22T04:06:29.958Z,93.21
2023-02-22T04:07:29.957Z,93.23
2023-02-22T04:08:30.170Z,93.23
2023-02-22T04:09:29.963Z,93.24
2023-02-22T04:10:29.456Z,93.25
2023-02-22T04:11:30.390Z,93.26
2023-02-22T04:12:29.387Z,93.27
2023-02-22T04:13:29.407Z,93.29
2023-02-22T04:14:29.760Z,93.27
2023-02-22T04:15:29.356Z,93.26
2023-02-22T04:16:29.379Z,93.26
2023-02-22T04:17:29.542Z,93.25
2023-02-22T04:18:29.314Z,93.26
2023-02-22T04:19:29.303Z,93.25
2023-02-22T04:20:29.333Z,93.27
2023-02-22T04:21:29.649Z,93.30
2023-02-22T04:22:29.678Z,93.28
2023-02-22T04:23:29.712Z,93.29
2023-02-22T04:24:30.690Z,93.30
2023-02-22T04:25:29.251Z,93.31
2023-02-22T04:26:29.259Z,93.32
2023-02-22T04:27:29.222Z,93.34
2023-02-22T04:28:29.216Z,93.34
2023-02-22T04:29:29.898Z,93.36
2023-02-22T04:30:30.047Z,93.36
2023-02-22T04:31:29.790Z,93.37
2023-02-22T04:32:29.381Z,93.38
2023-02-22T04:33:29.450Z,93.38
2023-02-22T04:34:29.992Z,93.37
2023-02-22T04:35:29.116Z,93.39
2023-02-22T04:36:29.115Z,93.36
2023-02-22T04:37:29.968Z,93.37
2023-02-22T04:38:29.363Z,93.37
2023-02-22T04:39:29.132Z,93.37
2023-02-22T04:40:29.987Z,93.38
2023-02-22T04:41:29.047Z,93.37
2023-02-22T04:42:29.057Z,93.35
2023-02-22T04:43:29.041Z,93.34
2023-02-22T04:44:29.043Z,93.30
2023-02-22T04:45:29.018Z,93.29
2023-02-22T04:46:29.041Z,93.26
2023-02-22T04:47:28.977Z,93.24
2023-02-22T04:48:29.011Z,93.22
2023-02-22T04:49:28.969Z,93.23
2023-02-22T04:50:28.968Z,93.20
2023-02-22T04:51:28.951Z,93.20
2023-02-22T04:52:28.927Z,93.21
2023-02-22T04:53:29.000Z,93.17
2023-02-22T04:54:28.918Z,93.15
2023-02-22T04:55:28.947Z,93.14
2023-02-22T04:56:28.974Z,93.13
2023-02-22T04:57:28.996Z,93.12
2023-02-22T04:58:29.000Z,93.12
2023-02-22T04:59:28.840Z,93.13
2023-02-22T05:00:28.854Z,93.11
2023-02-22T05:01:28.900Z,93.11
2023-02-22T05:02:28.850Z,93.12
2023-02-22T05:03:28.806Z,93.09
2023-02-22T05:04:28.811Z,93.07
2023-02-22T05:05:28.783Z,93.07
2023-02-22T05:06:28.778Z,93.05
2023-02-22T05:07:28.745Z,93.05
2023-02-22T05:08:28.756Z,93.02
2023-02-22T05:09:28.997Z,93.01
2023-02-22T05:10:28.730Z,93.01
2023-02-22T05:11:28.718Z,92.97
2023-02-22T05:12:29.006Z,92.95
2023-02-22T05:13:28.678Z,92.92
2023-02-22T05:14:28.682Z,92.90
2023-02-22T05:15:28.656Z,92.89
2023-02-22T05:16:28.701Z,92.88
2023-02-22T05:17:29.000Z,92.86
2023-02-22T05:18:28.652Z,92.86
2023-02-22T05:19:28.604Z,92.84
2023-02-22T05:20:29.013Z,92.85
2023-02-22T05:21:28.601Z,92.81
2023-02-22T05:22:28.599Z,92.81
2023-02-22T05:23:28.604Z,92.80
2023-02-22T05:24:28.545Z,92.77
2023-02-22T05:25:29.024Z,92.76
2023-02-22T05:26:28.513Z,92.73
2023-02-22T05:27:28.537Z,92.73
2023-02-22T05:28:29.500Z,92.74
2023-02-22T05:29:28.510Z,92.74
2023-02-22T05:30:28.581Z,92.71
2023-02-22T05:31:28.551Z,92.65
2023-02-22T05:32:28.551Z,92.64
2023-02-22T05:33:29.104Z,92.63
2023-02-22T05:34:29.022Z,92.68
2023-02-22T05:35:28.446Z,92.70
2023-02-22T05:36:29.386Z,92.72
2023-02-22T05:37:28.448Z,92.76
2023-02-22T05:38:28.406Z,92.78
2023-02-22T05:39:29.039Z,92.79
2023-02-22T05:40:28.368Z,92.81
2023-02-22T05:41:29.433Z,92.83
2023-02-22T05:42:29.043Z,92.85
2023-02-22T05:43:28.367Z,92.80
2023-02-22T05:44:28.360Z,92.78
2023-02-22T05:45:28.363Z,92.78
2023-02-22T05:46:28.330Z,92.79
2023-02-22T05:47:28.298Z,92.80
2023-02-22T05:48:28.294Z,92.82
2023-02-22T05:49:28.467Z,92.83
2023-02-22T05:50:28.468Z,92.86
2023-02-22T05:51:28.275Z,92.89
2023-02-22T05:52:28.536Z,92.87
2023-02-22T05:53:28.230Z,92.90
2023-02-22T05:54:28.230Z,92.91
2023-02-22T05:55:28.211Z,92.93
2023-02-22T05:56:28.185Z,92.93
2023-02-22T05:57:28.719Z,92.92
2023-02-22T05:58:28.217Z,92.92
2023-02-22T05:59:28.178Z,92.95
2023-02-22T06:00:28.484Z,92.96
2023-02-22T06:01:28.847Z,92.98
2023-02-22T06:02:28.107Z,92.97
2023-02-22T06:03:28.122Z,92.98
2023-02-22T06:04:28.117Z,93.00
2023-02-22T06:05:29.013Z,93.00
2023-02-22T06:06:29.010Z,93.02
2023-02-22T06:07:28.072Z,93.04
2023-02-22T06:08:28.046Z,93.03
2023-02-22T06:09:28.047Z,93.02
2023-02-22T06:10:28.029Z,93.05
2023-02-22T06:11:28.047Z,93.05
2023-02-22T06:12:28.010Z,93.04
2023-02-22T06:13:28.055Z,93.05
2023-02-22T06:14:27.975Z,93.09
2023-02-22T06:15:28.055Z,93.11
2023-02-22T06:16:28.056Z,93.15
2023-02-22T06:17:27.971Z,93.17
2023-02-22T06:18:27.946Z,93.18
2023-02-22T06:19:27.935Z,93.18
2023-02-22T06:20:27.903Z,93.20
2023-02-22T06:21:28.656Z,93.23
2023-02-22T06:22:28.059Z,93.26
2023-02-22T06:23:28.067Z,93.27
2023-02-22T06:24:28.052Z,93.28
2023-02-22T06:25:27.874Z,93.30
2023-02-22T06:26:27.867Z,93.32
2023-02-22T06:27:27.857Z,93.33
2023-02-22T06:28:27.814Z,93.34
2023-02-22T06:29:27.965Z,93.39
2023-02-22T06:30:27.850Z,93.43
2023-02-22T06:31:27.846Z,93.49
2023-02-22T06:32:27.848Z,93.53
2023-02-22T06:33:27.774Z,93.55
2023-02-22T06:34:27.755Z,93.55
2023-02-22T06:35:27.750Z,93.56
2023-02-22T06:36:27.975Z,93.58
2023-02-22T06:37:28.017Z,93.57
2023-02-22T06:38:28.042Z,93.57
2023-02-22T06:39:27.709Z,93.57
2023-02-22T06:40:28.061Z,93.57
2023-02-22T06:41:27.711Z,93.55
2023-02-22T06:42:28.050Z,93.55
2023-02-22T06:43:27.690Z,93.54
2023-02-22T06:44:27.624Z,93.55
2023-02-22T06:45:28.301Z,93.54
2023-02-22T06:46:28.069Z,93.51
2023-02-22T06:47:28.362Z,93.49
2023-02-22T06:48:28.072Z,93.45
2023-02-22T06:49:27.598Z,93.42
2023-02-22T06:50:27.584Z,93.40
2023-02-22T06:51:27.588Z,93.38
2023-02-22T06:52:27.555Z,93.35
2023-02-22T06:53:28.069Z,93.36
2023-02-22T06:54:28.078Z,93.37
2023-02-22T06:55:28.474Z,93.36
2023-02-22T06:56:28.365Z,93.36
2023-02-22T06:57:28.076Z,93.34
2023-02-22T06:58:27.495Z,93.34
2023-02-22T06:59:27.490Z,93.33
2023-02-22T07:00:27.603Z,93.34
2023-02-22T07:01:27.694Z,93.35
2023-02-22T07:02:28.076Z,93.36
2023-02-22T07:03:27.523Z,93.36
2023-02-22T07:04:27.403Z,93.37
2023-02-22T07:05:28.097Z,93.37
2023-02-22T07:06:27.393Z,93.37
2023-02-22T07:07:27.392Z,93.39
2023-02-22T07:08:27.365Z,93.41
2023-02-22T07:09:27.387Z,93.41
2023-02-22T07:10:27.349Z,93.40
2023-02-22T07:11:27.340Z,93.40
2023-02-22T07:12:27.314Z,93.39
2023-02-22T07:13:27.360Z,93.39
2023-02-22T07:14:27.553Z,93.40
2023-02-22T07:15:27.589Z,93.38
2023-02-22T07:16:27.373Z,93.39
2023-02-22T07:17:27.332Z,93.39
2023-02-22T07:18:28.925Z,93.38
2023-02-22T07:19:27.284Z,93.35
2023-02-22T07:20:27.402Z,93.36
2023-02-22T07:21:27.223Z,93.37
2023-02-22T07:22:27.205Z,93.38
2023-02-22T07:23:27.499Z,93.41
2023-02-22T07:24:27.180Z,93.43
2023-02-22T07:25:27.573Z,93.43
2023-02-22T07:26:27.313Z,93.46
2023-02-22T07:27:27.154Z,93.48
2023-02-22T07:28:27.127Z,93.51
2023-02-22T07:29:27.701Z,93.53
2023-02-22T07:30:27.161Z,93.52
2023-02-22T07:31:29.572Z,93.56
2023-02-22T07:32:27.163Z,93.60
2023-02-22T07:33:27.122Z,93.62
2023-02-22T07:34:27.063Z,93.65
2023-02-22T07:35:27.093Z,93.66
2023-02-22T07:36:27.044Z,93.68
2023-02-22T07:37:27.048Z,93.66
2023-02-22T07:38:27.024Z,93.66
2023-02-22T07:39:27.058Z,93.64
2023-02-22T07:40:27.013Z,93.66
2023-02-22T07:41:27.112Z,93.66
2023-02-22T07:42:27.113Z,93.64
2023-02-22T07:43:27.041Z,93.64
2023-02-22T07:44:27.127Z,93.66
2023-02-22T07:45:26.990Z,93.69
2023-02-22T07:46:26.942Z,93.68
2023-02-22T07:47:26.939Z,93.66
2023-02-22T07:48:27.970Z,93.64
2023-02-22T07:49:27.120Z,93.62
2023-02-22T07:50:27.121Z,93.61
2023-02-22T07:51:27.109Z,93.60
2023-02-22T07:52:26.904Z,93.61
2023-02-22T07:53:28.725Z,93.64
2023-02-22T07:54:26.852Z,93.64
2023-02-22T07:55:26.847Z,93.65
2023-02-22T07:56:26.849Z,93.66
2023-02-22T07:57:26.826Z,93.70
2023-02-22T07:58:26.788Z,93.69
2023-02-22T07:59:26.792Z,93.69
2023-02-22T08:00:27.134Z,93.68
2023-02-22T08:01:26.782Z,93.67
2023-02-22T08:02:26.776Z,93.66
2023-02-22T08:03:26.791Z,93.67
2023-02-22T08:04:26.727Z,93.69
2023-02-22T08:05:26.719Z,93.73
2023-02-22T08:06:26.722Z,93.74
2023-02-22T08:07:26.715Z,93.77
2023-02-22T08:08:26.698Z,93.78
2023-02-22T08:09:26.688Z,93.76
2023-02-22T08:10:26.700Z,93.75
2023-02-22T08:11:26.675Z,93.73
2023-02-22T08:12:26.633Z,93.72
2023-02-22T08:13:27.123Z,93.73
2023-02-22T08:14:26.619Z,93.71
2023-02-22T08:15:26.636Z,93.71
2023-02-22T08:16:26.600Z,93.71
2023-02-22T08:17:26.579Z,93.71
2023-02-22T08:18:26.639Z,93.72
2023-02-22T08:19:26.562Z,93.71
2023-02-22T08:20:26.536Z,93.63
2023-02-22T08:21:26.596Z,93.58
2023-02-22T08:22:27.132Z,93.53
2023-02-22T08:23:26.517Z,93.47
2023-02-22T08:24:26.493Z,93.36
2023-02-22T08:25:26.580Z,93.20
2023-02-22T08:26:27.148Z,93.16
2023-02-22T08:27:26.489Z,93.10
2023-02-22T08:28:26.470Z,92.97
2023-02-22T08:29:27.150Z,92.93
2023-02-22T08:30:26.483Z,92.84
2023-02-22T08:31:26.471Z,92.70
2023-02-22T08:32:27.296Z,92.50
2023-02-22T08:33:26.546Z,92.22
2023-02-22T08:34:26.388Z,92.05
2023-02-22T08:35:26.466Z,91.82
2023-02-22T08:36:26.490Z,91.67
2023-02-22T08:37:26.531Z,91.66
2023-02-22T08:38:26.348Z,91.48
2023-02-22T08:39:26.335Z,91.33
2023-02-22T08:40:26.649Z,91.16
2023-02-22T08:41:26.328Z,91.01
2023-02-22T08:42:26.716Z,90.93
2023-02-22T08:43:26.786Z,90.80
2023-02-22T08:44:26.797Z,90.72
2023-02-22T08:45:26.830Z,90.58
2023-02-22T08:46:26.856Z,90.57
2023-02-22T08:47:26.249Z,90.39
2023-02-22T08:48:26.238Z,90.24
2023-02-22T08:49:26.220Z,90.21
2023-02-22T08:50:26.300Z,90.12
2023-02-22T08:51:27.793Z,89.92
2023-02-22T08:52:26.356Z,89.80
2023-02-22T08:53:26.187Z,89.70
2023-02-22T08:54:26.155Z,89.76
2023-02-22T08:55:26.844Z,89.78
2023-02-22T08:56:26.498Z,89.51
2023-02-22T08:57:26.327Z,89.42
2023-02-22T08:58:26.557Z,89.39
2023-02-22T08:59:26.179Z,89.40
2023-02-22T09:00:26.243Z,89.51
2023-02-22T09:01:33.060Z,89.54
2023-02-22T09:02:27.164Z,89.48
2023-02-22T09:03:26.750Z,89.44
2023-02-22T09:04:26.747Z,89.48
2023-02-22T09:05:26.184Z,89.51
2023-02-22T09:06:26.547Z,89.51
2023-02-22T09:07:26.053Z,89.49
2023-02-22T09:08:26.199Z,89.42
2023-02-22T09:09:26.176Z,89.37
2023-02-22T09:10:26.176Z,89.13
2023-02-22T09:11:26.963Z,89.08
2023-02-22T09:12:26.332Z,89.08
2023-02-22T09:13:26.175Z,89.11
2023-02-22T09:14:25.915Z,89.12
2023-02-22T09:15:25.953Z,89.15
2023-02-22T09:16:26.020Z,89.22
2023-02-22T09:17:26.011Z,89.31
2023-02-22T09:18:30.517Z,89.40
2023-02-22T09:19:27.210Z,89.35
2023-02-22T09:20:26.118Z,89.39
2023-02-22T09:21:26.179Z,89.60
2023-02-22T09:22:26.171Z,89.83
2023-02-22T09:23:25.874Z,89.86
2023-02-22T09:24:26.178Z,89.99
2023-02-22T09:25:26.198Z,90.21
2023-02-22T09:26:26.182Z,90.27
2023-02-22T09:27:25.783Z,90.35
2023-02-22T09:28:27.306Z,90.27
2023-02-22T09:29:27.216Z,90.22
2023-02-22T09:30:26.231Z,90.25
2023-02-22T09:31:26.325Z,90.18
2023-02-22T09:32:26.416Z,90.18
2023-02-22T09:33:25.747Z,90.13
2023-02-22T09:34:25.686Z,90.24
2023-02-22T09:35:25.747Z,90.23
2023-02-22T09:36:26.266Z,90.15
2023-02-22T09:37:25.821Z,90.04
2023-02-22T09:38:25.856Z,90.04
2023-02-22T09:39:25.718Z,89.98
2023-02-22T09:40:25.643Z,89.97
2023-02-22T09:41:25.956Z,90.01
2023-02-22T09:42:25.624Z,90.04
2023-02-22T09:43:25.589Z,90.10
2023-02-22T09:44:26.536Z,90.10
2023-02-22T09:45:25.553Z,90.14
2023-02-22T09:46:26.086Z,89.86
2023-02-22T09:47:26.176Z,89.84
2023-02-22T09:48:25.525Z,89.74
2023-02-22T09:49:26.195Z,89.53
2023-02-22T09:50:25.517Z,89.43
2023-02-22T09:51:25.482Z,89.33
2023-02-22T09:52:26.211Z,89.20
2023-02-22T09:53:26.438Z,89.13
2023-02-22T09:54:25.465Z,89.05
2023-02-22T09:55:26.198Z,88.98
2023-02-22T09:56:25.466Z,88.93
2023-02-22T09:57:25.465Z,88.74
2023-02-22T09:58:25.435Z,88.67
2023-02-22T09:59:25.394Z,88.62
2023-02-22T10:00:25.590Z,88.77
2023-02-22T10:01:25.388Z,88.92
2023-02-22T10:02:25.379Z,88.78
2023-02-22T10:03:25.383Z,88.51
2023-02-22T10:04:25.732Z,88.42
2023-02-22T10:05:25.385Z,88.51
2023-02-22T10:06:25.358Z,88.54
2023-02-22T10:07:25.307Z,88.57
2023-02-22T10:08:25.879Z,88.46
2023-02-22T10:09:25.289Z,88.54
2023-02-22T10:10:25.282Z,88.47
2023-02-22T10:11:25.257Z,88.47
2023-02-22T10:12:25.298Z,88.54
2023-02-22T10:13:25.237Z,88.50
2023-02-22T10:14:25.230Z,88.53
2023-02-22T10:15:25.203Z,88.10
2023-02-22T10:16:25.326Z,87.62
2023-02-22T10:17:25.210Z,87.43
2023-02-22T10:18:25.188Z,87.40
2023-02-22T10:19:25.170Z,87.30
2023-02-22T10:20:25.214Z,87.27
2023-02-22T10:21:25.139Z,87.19
2023-02-22T10:22:25.183Z,86.96
2023-02-22T10:23:25.113Z,86.93
2023-02-22T10:24:25.119Z,86.91
2023-02-22T10:25:25.115Z,86.60
2023-02-22T10:26:25.116Z,86.33
2023-02-22T10:27:25.061Z,86.13
2023-02-22T10:28:25.089Z,85.97
2023-02-22T10:29:25.243Z,85.79
2023-02-22T10:30:25.826Z,85.76
2023-02-22T10:31:25.186Z,85.57
2023-02-22T10:32:25.035Z,85.45
2023-02-22T10:33:25.003Z,85.39
2023-02-22T10:34:25.029Z,85.53
2023-02-22T10:35:25.220Z,85.37
2023-02-22T10:36:25.161Z,85.30
2023-02-22T10:37:24.978Z,85.15
2023-02-22T10:38:24.994Z,85.24
2023-02-22T10:39:24.942Z,85.48
2023-02-22T10:40:25.079Z,85.56
2023-02-22T10:41:24.903Z,85.58
2023-02-22T10:42:25.167Z,85.75
2023-02-22T10:43:24.892Z,85.62
2023-02-22T10:44:24.922Z,85.62
2023-02-22T10:45:25.251Z,85.58
2023-02-22T10:46:25.122Z,85.56
2023-02-22T10:47:24.842Z,85.61
2023-02-22T10:48:25.268Z,85.58
2023-02-22T10:49:25.038Z,85.61
2023-02-22T10:50:25.238Z,85.79
2023-02-22T10:51:25.037Z,85.81
2023-02-22T10:52:25.258Z,85.77
2023-02-22T10:53:25.255Z,85.66
2023-02-22T10:54:24.794Z,85.70
2023-02-22T10:55:24.748Z,86.00
2023-02-22T10:56:25.265Z,86.01
2023-02-22T10:57:24.716Z,85.97
2023-02-22T10:58:24.748Z,86.10
2023-02-22T10:59:25.672Z,86.07
2023-02-22T11:00:25.277Z,86.03
2023-02-22T11:01:25.300Z,86.11
2023-02-22T11:02:25.279Z,86.12
2023-02-22T11:03:24.655Z,86.24
2023-02-22T11:04:25.279Z,86.34
2023-02-22T11:05:24.672Z,86.21
2023-02-22T11:06:24.631Z,86.16
2023-02-22T11:07:24.605Z,85.90
2023-02-22T11:08:24.640Z,86.08
2023-02-22T11:09:24.828Z,86.17
2023-02-22T11:10:24.596Z,86.25
2023-02-22T11:11:24.583Z,86.35
2023-02-22T11:12:24.909Z,86.36
2023-02-22T11:13:24.937Z,86.40
2023-02-22T11:14:24.565Z,86.31
2023-02-22T11:15:24.516Z,86.19
2023-02-22T11:16:25.078Z,86.13
2023-02-22T11:17:24.493Z,86.14
2023-02-22T11:18:24.495Z,86.04
2023-02-22T11:19:24.543Z,86.05
2023-02-22T11:20:24.626Z,86.11
2023-02-22T11:21:24.499Z,86.17
2023-02-22T11:22:24.462Z,86.25
2023-02-22T11:23:24.411Z,86.25
2023-02-22T11:24:24.742Z,86.23
2023-02-22T11:25:24.769Z,86.20
2023-02-22T11:26:24.404Z,86.31
2023-02-22T11:27:24.468Z,86.65
2023-02-22T11:28:24.872Z,86.80
2023-02-22T11:29:24.479Z,86.81
2023-02-22T11:30:24.396Z,86.70
2023-02-22T11:31:24.370Z,86.69
2023-02-22T11:32:25.140Z,86.49
2023-02-22T11:33:24.297Z,86.28
2023-02-22T11:34:24.352Z,86.12
2023-02-22T11:35:24.504Z,85.99
2023-02-22T11:36:24.312Z,85.94
2023-02-22T11:37:24.274Z,85.91
2023-02-22T11:38:24.249Z,85.93
2023-02-22T11:39:24.252Z,85.70
2023-02-22T11:40:25.165Z,85.80
2023-02-22T11:41:24.327Z,85.75
2023-02-22T11:42:24.233Z,85.68
2023-02-22T11:43:24.466Z,85.93
2023-02-22T11:44:24.314Z,86.04
2023-02-22T11:45:24.284Z,85.86
2023-02-22T11:46:24.318Z,85.95
2023-02-22T11:47:24.282Z,85.90
2023-02-22T11:48:24.294Z,85.78
2023-02-22T11:49:24.115Z,86.10
2023-02-22T11:50:24.185Z,86.19
2023-02-22T11:51:24.105Z,86.13
2023-02-22T11:52:26.774Z,85.97
2023-02-22T11:53:24.200Z,85.73
2023-02-22T11:54:24.075Z,86.00
2023-02-22T11:55:36.393Z,86.08
2023-02-22T11:56:36.975Z,86.30
2023-02-22T11:57:25.332Z,86.05
2023-02-22T11:58:24.028Z,85.89
2023-02-22T11:59:24.023Z,85.57
2023-02-22T12:00:24.087Z,85.53
2023-02-22T12:01:23.950Z,85.47
2023-02-22T12:02:23.989Z,85.26
2023-02-22T12:03:24.218Z,85.23
2023-02-22T12:04:24.247Z,85.14
2023-02-22T12:05:24.293Z,84.95
2023-02-22T12:06:24.298Z,84.91
2023-02-22T12:07:23.915Z,84.78
2023-02-22T12:08:24.315Z,84.64
2023-02-22T12:09:24.153Z,84.57
2023-02-22T12:10:24.321Z,84.63
2023-02-22T12:11:23.853Z,84.36
2023-02-22T12:12:24.386Z,84.35
2023-02-22T12:13:24.327Z,84.23
2023-02-22T12:14:23.822Z,84.46
2023-02-22T12:15:23.834Z,84.52
2023-02-22T12:16:25.256Z,84.55
2023-02-22T12:17:23.812Z,84.25
2023-02-22T12:18:23.785Z,84.15
2023-02-22T12:19:23.763Z,84.11
2023-02-22T12:20:23.770Z,84.03
2023-02-22T12:21:24.317Z,83.97
2023-02-22T12:22:23.741Z,83.47
2023-02-22T12:23:23.728Z,83.32
2023-02-22T12:24:24.170Z,83.07
2023-02-22T12:25:23.686Z,82.82
2023-02-22T12:26:23.692Z,82.73
2023-02-22T12:27:23.666Z,82.90
2023-02-22T12:28:25.501Z,83.03
2023-02-22T12:29:23.678Z,83.09
2023-02-22T12:30:23.766Z,83.28
2023-02-22T12:31:24.423Z,83.42
2023-02-22T12:32:24.450Z,83.23
2023-02-22T12:33:23.625Z,83.26
2023-02-22T12:34:23.630Z,83.29
2023-02-22T12:35:23.636Z,83.43
2023-02-22T12:36:23.650Z,83.66
2023-02-22T12:37:23.700Z,83.80
2023-02-22T12:38:23.609Z,83.91
2023-02-22T12:39:23.552Z,83.58
2023-02-22T12:40:23.536Z,83.34
2023-02-22T12:41:23.501Z,83.37
2023-02-22T12:42:23.520Z,82.98
2023-02-22T12:43:23.525Z,82.84
2023-02-22T12:44:23.510Z,82.69
2023-02-22T12:45:23.452Z,82.84
2023-02-22T12:46:23.475Z,82.78
2023-02-22T12:47:23.819Z,82.50
2023-02-22T12:48:23.855Z,82.47
2023-02-22T12:49:23.463Z,82.28
2023-02-22T12:50:23.488Z,82.36
2023-02-22T12:51:23.383Z,82.45
2023-02-22T12:52:23.425Z,82.56